Time;durP1;ratioP1;P1;durP2;ratioP2;P2;SDS_P1;SDS_P2;PMS_P1;PMS_P2;Temp;Humidity;BMP_temperature;BMP_pressure;BME280_temperature;BME280_humidity;BME280_pressure;Samples;Min_cycle;Max_cycle;Signal;HPM_P1;HPM_P2
2022/03/31 06:01:12;;;;;;;31.58;17.60;;;;;;;;;;5591753;23;20158;-84
2022/03/31 06:03:39;;;;;;;35.78;18.65;;;;;;;;;;4972336;28;20404;-83
2022/03/31 06:06:06;;;;;;;46.72;22.00;;;;;;;;;;4952691;28;20047;-83
2022/03/31 06:08:32;;;;;;;44.33;22.80;;;;;;;;;;4973157;28;20113;-83
2022/03/31 06:10:59;;;;;;;42.83;23.20;;;;;;;;;;4951719;28;20456;-83
2022/03/31 06:13:26;;;;;;;47.75;23.42;;;;;;;;;;4970692;28;20467;-83
2022/03/31 06:15:54;;;;;;;55.92;25.67;;;;;;;;;;4970787;28;20101;-83
2022/03/31 06:18:23;;;;;;;47.45;25.88;;;;;;;;;;4970740;28;20195;-82
2022/03/31 06:20:49;;;;;;;50.22;27.20;;;;;;;;;;4969605;28;20047;-83
2022/03/31 06:23:16;;;;;;;55.60;28.00;;;;;;;;;;4972990;28;20046;-83
2022/03/31 06:25:43;;;;;;;56.97;29.30;;;;;;;;;;4968045;28;20517;-83
2022/03/31 06:28:10;;;;;;;69.25;31.60;;;;;;;;;;4969259;28;20515;-82
2022/03/31 06:30:37;;;;;;;61.05;30.10;;;;;;;;;;4970479;28;20055;-83
2022/03/31 06:33:04;;;;;;;61.92;31.52;;;;;;;;;;4970162;28;20071;-81
2022/03/31 06:35:31;;;;;;;63.28;31.70;;;;;;;;;;4972872;28;20059;-83
2022/03/31 06:37:58;;;;;;;64.05;30.05;;;;;;;;;;4971064;28;20077;-82
2022/03/31 06:40:25;;;;;;;61.67;31.00;;;;;;;;;;4968367;28;20503;-83
2022/03/31 06:42:52;;;;;;;58.80;30.73;;;;;;;;;;4968473;28;20058;-83
2022/03/31 06:45:19;;;;;;;60.65;29.95;;;;;;;;;;4968282;28;20046;-84
2022/03/31 06:47:55;;;;;;;59.20;30.30;;;;;;;;;;4955152;28;20081;-84
2022/03/31 06:50:27;;;;;;;68.38;32.13;;;;;;;;;;4969837;28;20638;-85
2022/03/31 06:52:56;;;;;;;61.63;32.03;;;;;;;;;;4952238;28;20042;-85
2022/03/31 06:55:23;;;;;;;62.72;31.27;;;;;;;;;;4969074;28;20047;-85
2022/03/31 06:57:49;;;;;;;59.53;30.23;;;;;;;;;;4969706;28;20042;-84
2022/03/31 07:00:16;;;;;;;63.63;31.60;;;;;;;;;;4969702;28;20098;-83
2022/03/31 07:02:43;;;;;;;62.60;31.67;;;;;;;;;;4970421;28;20048;-82
2022/03/31 07:05:09;;;;;;;62.67;30.90;;;;;;;;;;4971869;28;20114;-82
2022/03/31 07:07:41;;;;;;;57.13;30.08;;;;;;;;;;4969694;28;20054;-83
2022/03/31 07:10:08;;;;;;;58.85;28.10;;;;;;;;;;4969111;28;20050;-81
2022/03/31 07:12:37;;;;;;;41.65;22.75;;;;;;;;;;4969933;28;20082;-83
2022/03/31 07:15:05;;;;;;;34.92;18.77;;;;;;;;;;4969438;28;20051;-81
2022/03/31 07:17:31;;;;;;;37.78;20.92;;;;;;;;;;4971824;28;20075;-83
2022/03/31 07:19:58;;;;;;;37.65;20.42;;;;;;;;;;4970643;28;20113;-83
2022/03/31 07:22:25;;;;;;;34.92;18.38;;;;;;;;;;4968886;28;20051;-82
2022/03/31 07:24:51;;;;;;;31.63;18.55;;;;;;;;;;4969104;28;20077;-81
2022/03/31 07:27:19;;;;;;;25.33;14.50;;;;;;;;;;4969018;28;20074;-81
2022/03/31 07:29:46;;;;;;;24.02;14.10;;;;;;;;;;4954317;28;20050;-80
2022/03/31 07:32:12;;;;;;;21.45;12.85;;;;;;;;;;4970817;28;20082;-81
2022/03/31 07:34:39;;;;;;;18.73;10.68;;;;;;;;;;4969116;28;20105;-81
2022/03/31 07:37:05;;;;;;;20.77;10.38;;;;;;;;;;4963382;28;20435;-80
2022/03/31 07:39:34;;;;;;;17.92;10.10;;;;;;;;;;4965770;28;20510;-81
2022/03/31 07:42:02;;;;;;;13.68;8.73;;;;;;;;;;4965649;28;20328;-81
2022/03/31 07:44:29;;;;;;;13.97;8.87;;;;;;;;;;4965640;28;20057;-81
2022/03/31 07:46:56;;;;;;;12.60;7.53;;;;;;;;;;4965940;28;20050;-81
2022/03/31 07:49:23;;;;;;;16.27;7.80;;;;;;;;;;4965063;28;20042;-81
2022/03/31 07:51:50;;;;;;;12.02;8.50;;;;;;;;;;4965649;28;20078;-81
2022/03/31 07:54:17;;;;;;;13.43;8.25;;;;;;;;;;4965402;28;20073;-82
2022/03/31 07:56:43;;;;;;;13.10;8.90;;;;;;;;;;4966148;28;20141;-82
2022/03/31 07:59:10;;;;;;;15.00;8.90;;;;;;;;;;4965011;28;20046;-82
2022/03/31 08:01:36;;;;;;;13.43;8.20;;;;;;;;;;4964879;28;20047;-83
2022/03/31 08:04:03;;;;;;;12.23;6.78;;;;;;;;;;4957501;28;20463;-83
2022/03/31 08:06:30;;;;;;;10.32;6.85;;;;;;;;;;4964067;28;20071;-82
2022/03/31 08:08:57;;;;;;;9.48;6.28;;;;;;;;;;4962826;28;20046;-82
2022/03/31 08:11:24;;;;;;;11.93;6.50;;;;;;;;;;4965790;28;21258;-83
2022/03/31 08:13:50;;;;;;;10.40;5.97;;;;;;;;;;4965469;28;20070;-82
2022/03/31 08:16:17;;;;;;;8.88;5.45;;;;;;;;;;4959798;28;20074;-82
2022/03/31 08:18:43;;;;;;;7.97;4.55;;;;;;;;;;4958886;28;20478;-82
2022/03/31 08:21:10;;;;;;;8.35;4.10;;;;;;;;;;4957256;28;20078;-81
2022/03/31 08:23:38;;;;;;;8.38;3.67;;;;;;;;;;4965249;28;20075;-82
2022/03/31 08:26:05;;;;;;;5.00;2.93;;;;;;;;;;4966258;28;20149;-80
2022/03/31 08:28:31;;;;;;;5.60;2.33;;;;;;;;;;4965094;28;20125;-83
2022/03/31 08:30:58;;;;;;;4.65;2.60;;;;;;;;;;4964599;28;20042;-82
2022/03/31 08:33:25;;;;;;;6.10;2.83;;;;;;;;;;4965514;28;20098;-83
2022/03/31 08:35:52;;;;;;;4.97;1.92;;;;;;;;;;4965531;28;20047;-83
2022/03/31 08:38:19;;;;;;;5.65;2.30;;;;;;;;;;4961998;28;20133;-82
2022/03/31 08:40:47;;;;;;;3.58;2.05;;;;;;;;;;4955721;28;20051;-84
2022/03/31 08:43:14;;;;;;;4.78;2.05;;;;;;;;;;4965837;28;20527;-84
2022/03/31 08:45:41;;;;;;;4.32;2.40;;;;;;;;;;4965319;28;21393;-83
2022/03/31 08:48:09;;;;;;;5.22;2.33;;;;;;;;;;4965808;28;20062;-84
2022/03/31 08:50:36;;;;;;;5.05;2.72;;;;;;;;;;4966160;28;20157;-84
2022/03/31 08:53:04;;;;;;;4.75;2.20;;;;;;;;;;4966060;28;20079;-83
2022/03/31 08:55:31;;;;;;;5.85;2.70;;;;;;;;;;4965273;28;20101;-82
2022/03/31 08:57:57;;;;;;;3.67;2.53;;;;;;;;;;4960118;28;20409;-85
2022/03/31 09:00:25;;;;;;;9.70;3.40;;;;;;;;;;4964254;28;20680;-84
2022/03/31 09:03:03;;;;;;;9.32;3.90;;;;;;;;;;4965199;28;20047;-84
2022/03/31 09:05:41;;;;;;;8.65;2.67;;;;;;;;;;4964937;28;20046;-83
2022/03/31 09:08:13;;;;;;;6.28;2.92;;;;;;;;;;4964726;28;20058;-83
2022/03/31 09:10:53;;;;;;;7.60;3.00;;;;;;;;;;4964785;28;20059;-83
2022/03/31 09:13:24;;;;;;;4.88;2.72;;;;;;;;;;4964566;28;20074;-84
2022/03/31 09:15:52;;;;;;;5.45;3.25;;;;;;;;;;4964935;28;20070;-83
2022/03/31 09:18:20;;;;;;;7.45;2.92;;;;;;;;;;4964533;28;20443;-84
2022/03/31 09:20:49;;;;;;;4.72;2.72;;;;;;;;;;4964817;28;20534;-83
2022/03/31 09:23:24;;;;;;;5.43;2.60;;;;;;;;;;4947917;28;20070;-84
2022/03/31 09:25:51;;;;;;;4.18;2.22;;;;;;;;;;4965079;28;20074;-84
2022/03/31 09:28:22;;;;;;;6.10;2.45;;;;;;;;;;4964573;28;20093;-84
2022/03/31 09:30:49;;;;;;;5.63;2.45;;;;;;;;;;4964577;28;20648;-84
2022/03/31 09:33:36;;;;;;;3.70;1.95;;;;;;;;;;4964084;28;20082;-83
2022/03/31 09:36:15;;;;;;;5.22;2.38;;;;;;;;;;4962674;28;20392;-83
2022/03/31 09:38:54;;;;;;;5.47;2.20;;;;;;;;;;4964776;28;20512;-84
2022/03/31 09:41:35;;;;;;;8.93;2.38;;;;;;;;;;4960480;28;20042;-83
2022/03/31 09:44:25;;;;;;;5.78;2.00;;;;;;;;;;4958537;28;20066;-84
2022/03/31 09:46:52;;;;;;;4.18;2.88;;;;;;;;;;4963936;28;20058;-86
2022/03/31 09:49:27;;;;;;;8.07;3.50;;;;;;;;;;4967326;28;20058;-84
2022/03/31 09:51:59;;;;;;;6.68;3.65;;;;;;;;;;4948229;28;20582;-85
2022/03/31 09:54:29;;;;;;;3.30;1.77;;;;;;;;;;4964235;28;20079;-84
2022/03/31 09:56:58;;;;;;;3.15;1.80;;;;;;;;;;4968704;28;20051;-85
2022/03/31 09:59:32;;;;;;;2.25;1.67;;;;;;;;;;4950732;28;20130;-86
2022/03/31 10:02:00;;;;;;;3.25;1.67;;;;;;;;;;4968897;28;20062;-86
2022/03/31 10:04:28;;;;;;;3.20;1.60;;;;;;;;;;4967465;28;20046;-84
2022/03/31 10:06:55;;;;;;;2.50;1.60;;;;;;;;;;4968642;28;20039;-84
2022/03/31 10:09:22;;;;;;;3.33;1.15;;;;;;;;;;4967669;28;20075;-84
2022/03/31 10:12:18;;;;;;;2.50;1.05;;;;;;;;;;4967650;28;20399;-83
2022/03/31 10:15:00;;;;;;;3.45;1.10;;;;;;;;;;4950437;28;20110;-83
2022/03/31 10:17:29;;;;;;;1.77;1.10;;;;;;;;;;4967392;28;20466;-83
2022/03/31 10:20:08;;;;;;;4.63;0.75;;;;;;;;;;4967448;28;20105;-84
2022/03/31 10:25:21;;;;;;;2.30;0.90;;;;;;;;;;4967050;28;20047;-84
2022/03/31 10:27:50;;;;;;;1.10;0.60;;;;;;;;;;4967948;28;20074;-84
2022/03/31 10:30:19;;;;;;;1.75;0.63;;;;;;;;;;4967138;28;20435;-84
2022/03/31 10:32:54;;;;;;;2.92;0.77;;;;;;;;;;4963053;28;20491;-84
2022/03/31 10:35:24;;;;;;;1.92;0.47;;;;;;;;;;4967244;28;20479;-85
2022/03/31 10:37:52;;;;;;;1.52;0.60;;;;;;;;;;4968366;28;20054;-85
2022/03/31 10:40:38;;;;;;;2.42;0.57;;;;;;;;;;4966704;28;20590;-83
2022/03/31 10:43:05;;;;;;;0.98;0.60;;;;;;;;;;4966968;28;20042;-85
2022/03/31 10:45:42;;;;;;;2.63;0.87;;;;;;;;;;4969232;28;20137;-85
2022/03/31 10:48:19;;;;;;;2.15;0.90;;;;;;;;;;4961539;28;20302;-85
2022/03/31 10:50:59;;;;;;;2.60;1.00;;;;;;;;;;4967498;28;20506;-86
2022/03/31 10:53:30;;;;;;;1.67;0.93;;;;;;;;;;4968134;28;20070;-85
2022/03/31 10:55:58;;;;;;;3.53;1.10;;;;;;;;;;4968307;28;20082;-85
2022/03/31 10:58:31;;;;;;;2.63;1.17;;;;;;;;;;4968027;28;20050;-84
2022/03/31 11:01:01;;;;;;;2.10;1.02;;;;;;;;;;4966626;28;20078;-84
2022/03/31 11:03:28;;;;;;;2.88;1.20;;;;;;;;;;4966712;28;20047;-85
2022/03/31 11:05:59;;;;;;;3.58;1.52;;;;;;;;;;4966271;28;20047;-85
2022/03/31 11:08:26;;;;;;;5.93;1.60;;;;;;;;;;4966841;28;20042;-85
2022/03/31 11:10:54;;;;;;;4.70;1.70;;;;;;;;;;4967322;28;20062;-85
2022/03/31 11:13:41;;;;;;;6.53;2.40;;;;;;;;;;4966517;28;20082;-87
2022/03/31 11:16:07;;;;;;;6.05;2.33;;;;;;;;;;4966121;28;20332;-85
2022/03/31 11:18:34;;;;;;;8.68;2.00;;;;;;;;;;4964686;28;20058;-85
2022/03/31 11:21:02;;;;;;;10.25;2.58;;;;;;;;;;4965920;28;20054;-86
2022/03/31 11:23:30;;;;;;;7.57;1.73;;;;;;;;;;4964852;28;20861;-85
2022/03/31 11:25:57;;;;;;;5.05;1.70;;;;;;;;;;4970557;28;20046;-85
2022/03/31 11:28:28;;;;;;;8.45;2.42;;;;;;;;;;4966115;28;20070;-85
2022/03/31 11:30:55;;;;;;;5.80;1.40;;;;;;;;;;4962401;28;20090;-87
2022/03/31 11:33:22;;;;;;;8.05;1.98;;;;;;;;;;4963176;28;20139;-86
2022/03/31 11:35:53;;;;;;;14.27;1.67;;;;;;;;;;4971259;28;20054;-86
2022/03/31 11:38:19;;;;;;;5.32;1.70;;;;;;;;;;4967722;28;20042;-84
2022/03/31 11:40:48;;;;;;;11.20;1.60;;;;;;;;;;4964223;28;20137;-86
2022/03/31 11:43:17;;;;;;;7.22;1.40;;;;;;;;;;4969525;28;20482;-86
2022/03/31 11:45:48;;;;;;;10.93;2.28;;;;;;;;;;4966284;28;20081;-86
2022/03/31 11:48:30;;;;;;;8.93;1.63;;;;;;;;;;4962502;28;20043;-87
2022/03/31 11:50:59;;;;;;;8.73;1.50;;;;;;;;;;4976536;28;20064;-86
2022/03/31 11:53:41;;;;;;;10.10;1.95;;;;;;;;;;4974510;28;21327;-86
2022/03/31 11:56:21;;;;;;;9.57;1.63;;;;;;;;;;4968603;28;20047;-85
2022/03/31 11:58:50;;;;;;;7.35;1.80;;;;;;;;;;4970451;28;20137;-84
2022/03/31 12:01:20;;;;;;;6.57;2.00;;;;;;;;;;4972594;28;20050;-85
2022/03/31 12:03:47;;;;;;;8.00;1.85;;;;;;;;;;4969808;28;20451;-86
2022/03/31 12:06:15;;;;;;;10.77;2.25;;;;;;;;;;4968589;28;20450;-85
2022/03/31 12:08:43;;;;;;;11.57;2.20;;;;;;;;;;4968211;28;20067;-87
2022/03/31 12:11:12;;;;;;;12.13;2.17;;;;;;;;;;4967885;28;20089;-85
2022/03/31 12:13:47;;;;;;;;;;;;;;;;;;4969181;28;20047;-84
2022/03/31 12:16:14;;;;;;;8.63;3.10;;;;;;;;;;4967688;28;19980;-85
2022/03/31 12:18:43;;;;;;;9.50;2.13;;;;;;;;;;4968338;28;20046;-85
2022/03/31 12:21:10;;;;;;;;;;;;;;;;;;4968425;28;20055;-86
2022/03/31 12:23:42;;;;;;;5.05;1.75;;;;;;;;;;4952276;28;19973;-87
2022/03/31 12:26:28;;;;;;;4.40;1.10;;;;;;;;;;4967407;28;20045;-85
2022/03/31 12:28:58;;;;;;;3.72;1.10;;;;;;;;;;4967780;28;20081;-85
2022/03/31 12:31:29;;;;;;;5.05;1.27;;;;;;;;;;4966735;28;20051;-86
2022/03/31 12:33:57;;;;;;;6.38;1.30;;;;;;;;;;4967685;28;20073;-87
2022/03/31 12:36:31;;;;;;;7.95;1.73;;;;;;;;;;4968469;28;20139;-86
2022/03/31 12:39:00;;;;;;;7.28;1.73;;;;;;;;;;4967557;28;20043;-85
2022/03/31 12:41:33;;;;;;;7.15;1.27;;;;;;;;;;4969623;28;20046;-85
2022/03/31 12:44:10;;;;;;;5.78;1.48;;;;;;;;;;4968791;28;20137;-86
2022/03/31 12:46:45;;;;;;;4.72;1.30;;;;;;;;;;4968173;28;20046;-85
2022/03/31 12:49:17;;;;;;;6.80;1.35;;;;;;;;;;4952496;28;20423;-86
2022/03/31 12:51:54;;;;;;;6.43;1.20;;;;;;;;;;4969346;28;20105;-86
2022/03/31 12:54:26;;;;;;;5.88;1.40;;;;;;;;;;4971850;28;20039;-85
2022/03/31 12:57:17;;;;;;;6.10;0.93;;;;;;;;;;4954531;28;20047;-86
2022/03/31 12:59:56;;;;;;;4.65;1.23;;;;;;;;;;4968041;28;20035;-85
2022/03/31 13:02:22;;;;;;;;;;;;;;;;;;4969823;28;20113;-84
2022/03/31 13:04:49;;;;;;;4.68;1.10;;;;;;;;;;4968105;28;19961;-85
2022/03/31 13:07:17;;;;;;;5.60;1.38;;;;;;;;;;4966431;28;20515;-85
2022/03/31 13:09:46;;;;;;;5.53;1.35;;;;;;;;;;4945498;28;20046;-83
2022/03/31 13:12:14;;;;;;;4.70;1.25;;;;;;;;;;4968326;28;20117;-86
2022/03/31 13:14:43;;;;;;;8.20;1.83;;;;;;;;;;4969017;28;20050;-85
2022/03/31 13:17:13;;;;;;;6.63;1.10;;;;;;;;;;4971710;28;20050;-86
2022/03/31 13:19:41;;;;;;;6.53;1.27;;;;;;;;;;4971052;28;20074;-85
2022/03/31 13:22:10;;;;;;;4.40;0.80;;;;;;;;;;4970543;28;20062;-84
2022/03/31 13:24:37;;;;;;;5.50;1.50;;;;;;;;;;4970717;28;20475;-85
2022/03/31 13:27:05;;;;;;;3.58;1.10;;;;;;;;;;4971510;28;20124;-82
2022/03/31 13:29:32;;;;;;;2.83;0.98;;;;;;;;;;4973160;28;20050;-86
2022/03/31 13:31:58;;;;;;;7.05;0.90;;;;;;;;;;4971729;28;20055;-86
2022/03/31 13:34:29;;;;;;;4.03;0.80;;;;;;;;;;4971098;28;20133;-85
2022/03/31 13:36:59;;;;;;;4.40;0.77;;;;;;;;;;4970210;28;20097;-87
2022/03/31 13:39:28;;;;;;;5.15;1.05;;;;;;;;;;4971533;28;20051;-85
2022/03/31 13:41:56;;;;;;;8.85;1.10;;;;;;;;;;4967480;28;20106;-86
2022/03/31 13:44:24;;;;;;;3.67;1.20;;;;;;;;;;4973257;28;20050;-85
2022/03/31 13:46:55;;;;;;;11.00;1.13;;;;;;;;;;4971439;28;20594;-85
2022/03/31 13:49:23;;;;;;;9.52;1.30;;;;;;;;;;4969442;28;20054;-85
2022/03/31 13:51:50;;;;;;;5.28;1.20;;;;;;;;;;4953350;28;20486;-86
2022/03/31 13:54:18;;;;;;;8.15;1.20;;;;;;;;;;4971833;28;20089;-85
2022/03/31 13:56:47;;;;;;;8.03;1.20;;;;;;;;;;4953782;28;20559;-84
2022/03/31 14:02:01;;;;;;;6.63;0.85;;;;;;;;;;4970961;28;20148;-86
2022/03/31 14:04:29;;;;;;;4.40;1.15;;;;;;;;;;4969560;28;20093;-85
2022/03/31 14:06:56;;;;;;;4.45;1.20;;;;;;;;;;4971305;28;20039;-85
2022/03/31 14:09:25;;;;;;;3.67;1.02;;;;;;;;;;4969394;28;20065;-86
2022/03/31 14:11:54;;;;;;;3.42;0.90;;;;;;;;;;4966618;28;20047;-87
2022/03/31 14:14:23;;;;;;;3.05;0.90;;;;;;;;;;4962128;28;20476;-86
2022/03/31 14:16:52;;;;;;;4.60;0.77;;;;;;;;;;4957825;28;20046;-85
2022/03/31 14:19:24;;;;;;;4.20;0.85;;;;;;;;;;4961989;28;20050;-83
2022/03/31 14:21:52;;;;;;;3.45;0.98;;;;;;;;;;4953615;28;20074;-83
2022/03/31 14:24:21;;;;;;;3.75;1.05;;;;;;;;;;4957812;28;20528;-82
2022/03/31 14:26:50;;;;;;;6.18;1.08;;;;;;;;;;4958172;28;20425;-83
2022/03/31 14:29:17;;;;;;;3.88;1.00;;;;;;;;;;4954903;28;20787;-83
2022/03/31 14:31:46;;;;;;;5.25;0.95;;;;;;;;;;4954256;28;20587;-84
2022/03/31 14:34:14;;;;;;;4.28;0.93;;;;;;;;;;4959704;28;20050;-83
2022/03/31 14:36:44;;;;;;;5.15;0.98;;;;;;;;;;4965221;28;20105;-83
2022/03/31 14:39:12;;;;;;;5.50;0.90;;;;;;;;;;4952559;28;20079;-82
2022/03/31 14:41:41;;;;;;;6.15;1.10;;;;;;;;;;4956849;28;20090;-83
2022/03/31 14:44:08;;;;;;;1.92;0.77;;;;;;;;;;4960769;28;20077;-84
2022/03/31 14:46:36;;;;;;;5.00;0.90;;;;;;;;;;4963200;28;20130;-85
2022/03/31 14:49:07;;;;;;;4.03;1.13;;;;;;;;;;4968455;28;20122;-85
2022/03/31 14:51:33;;;;;;;3.45;1.40;;;;;;;;;;4963834;28;20090;-86
2022/03/31 14:54:01;;;;;;;6.55;1.50;;;;;;;;;;4968926;28;20106;-85
2022/03/31 14:56:28;;;;;;;7.40;1.90;;;;;;;;;;4970966;28;20066;-84
2022/03/31 14:58:55;;;;;;;9.23;1.63;;;;;;;;;;4971081;28;20078;-85
2022/03/31 15:01:23;;;;;;;6.40;1.67;;;;;;;;;;4964132;28;20129;-84
2022/03/31 15:03:51;;;;;;;4.40;1.65;;;;;;;;;;4967706;28;20043;-85
2022/03/31 15:06:19;;;;;;;2.42;1.42;;;;;;;;;;4966681;28;20102;-84
2022/03/31 15:08:46;;;;;;;7.65;1.73;;;;;;;;;;4966339;28;20067;-84
2022/03/31 15:16:55;;;;;;;6.25;1.52;;;;;;;;;;4937151;28;20070;-86
2022/03/31 15:19:23;;;;;;;2.38;1.23;;;;;;;;;;4964000;28;20043;-84
2022/03/31 15:21:50;;;;;;;7.63;1.60;;;;;;;;;;4967087;28;20109;-86
2022/03/31 15:24:17;;;;;;;3.78;1.38;;;;;;;;;;4964861;28;20146;-84
2022/03/31 15:26:44;;;;;;;4.57;1.55;;;;;;;;;;4955985;28;20065;-83
2022/03/31 15:29:12;;;;;;;5.78;1.13;;;;;;;;;;4958020;28;20078;-85
2022/03/31 15:31:42;;;;;;;3.22;1.20;;;;;;;;;;4957300;28;20126;-83
2022/03/31 15:34:09;;;;;;;8.70;1.60;;;;;;;;;;4966778;28;20058;-83
2022/03/31 15:36:36;;;;;;;2.60;1.23;;;;;;;;;;4963920;28;20054;-85
2022/03/31 15:39:03;;;;;;;6.20;1.50;;;;;;;;;;4965423;28;20050;-85
2022/03/31 15:41:48;;;;;;;5.47;1.55;;;;;;;;;;4962899;28;20046;-84
2022/03/31 15:44:15;;;;;;;7.47;1.60;;;;;;;;;;4965426;28;20093;-83
2022/03/31 15:46:42;;;;;;;6.15;1.55;;;;;;;;;;4965263;28;20088;-84
2022/03/31 15:49:09;;;;;;;3.85;1.27;;;;;;;;;;4973589;28;20046;-83
2022/03/31 15:51:36;;;;;;;6.53;1.92;;;;;;;;;;4965521;28;20550;-83
2022/03/31 15:54:03;;;;;;;5.45;1.88;;;;;;;;;;4963131;28;20499;-85
2022/03/31 15:56:30;;;;;;;5.07;2.15;;;;;;;;;;4962298;28;20113;-85
2022/03/31 15:58:56;;;;;;;5.82;1.65;;;;;;;;;;4969317;28;20051;-84
2022/03/31 16:01:29;;;;;;;5.15;1.63;;;;;;;;;;4960964;28;20400;-84
2022/03/31 16:03:56;;;;;;;5.07;1.65;;;;;;;;;;4959258;28;20053;-86
2022/03/31 16:06:23;;;;;;;6.93;2.40;;;;;;;;;;4953511;28;20074;-85
2022/03/31 16:08:50;;;;;;;6.53;1.60;;;;;;;;;;4955644;28;20058;-84
2022/03/31 16:11:17;;;;;;;6.20;2.10;;;;;;;;;;4955697;28;20090;-85
2022/03/31 16:13:44;;;;;;;6.60;1.90;;;;;;;;;;4958623;28;20463;-85
2022/03/31 16:16:11;;;;;;;5.88;2.53;;;;;;;;;;4964085;28;20071;-86
2022/03/31 16:18:38;;;;;;;5.65;2.70;;;;;;;;;;4957616;28;20058;-86
2022/03/31 16:21:05;;;;;;;6.53;1.92;;;;;;;;;;4952697;28;20547;-83
2022/03/31 16:23:43;;;;;;;7.03;3.25;;;;;;;;;;4954324;28;20102;-84
2022/03/31 16:26:11;;;;;;;7.63;1.50;;;;;;;;;;4958495;28;20149;-84
2022/03/31 16:28:42;;;;;;;7.93;2.22;;;;;;;;;;4958472;28;20055;-85
2022/03/31 16:31:15;;;;;;;3.90;1.50;;;;;;;;;;4960522;28;20121;-85
2022/03/31 16:33:42;;;;;;;7.90;1.75;;;;;;;;;;4965921;28;20055;-86
2022/03/31 16:36:10;;;;;;;7.80;1.60;;;;;;;;;;4965810;28;20078;-84
2022/03/31 16:38:39;;;;;;;4.32;1.42;;;;;;;;;;4963251;28;20050;-84
2022/03/31 16:41:07;;;;;;;3.83;1.45;;;;;;;;;;4963141;28;20047;-87
2022/03/31 16:43:35;;;;;;;4.05;1.55;;;;;;;;;;4958008;28;20055;-84
2022/03/31 16:46:02;;;;;;;11.80;1.98;;;;;;;;;;4963804;28;20154;-85
2022/03/31 16:48:29;;;;;;;5.25;1.80;;;;;;;;;;4963713;28;20526;-84
2022/03/31 16:50:55;;;;;;;4.20;1.77;;;;;;;;;;4964711;28;20145;-86
2022/03/31 16:53:22;;;;;;;6.72;1.45;;;;;;;;;;4969132;28;20078;-85
2022/03/31 16:55:49;;;;;;;6.90;1.70;;;;;;;;;;4970586;28;20575;-84
2022/03/31 16:58:16;;;;;;;5.38;2.10;;;;;;;;;;4966645;28;20066;-86
2022/03/31 17:00:42;;;;;;;9.10;1.90;;;;;;;;;;4970985;28;20054;-83
2022/03/31 17:03:09;;;;;;;10.65;2.08;;;;;;;;;;4972061;28;20099;-82
2022/03/31 17:05:37;;;;;;;6.20;1.65;;;;;;;;;;4973581;28;20074;-85
2022/03/31 17:08:04;;;;;;;6.88;2.10;;;;;;;;;;4967294;28;20106;-84
2022/03/31 17:10:31;;;;;;;4.95;1.58;;;;;;;;;;4967309;28;20055;-84
2022/03/31 17:12:58;;;;;;;9.25;2.38;;;;;;;;;;4966058;28;20058;-84
2022/03/31 17:15:32;;;;;;;6.30;2.20;;;;;;;;;;4967400;28;20055;-84
2022/03/31 17:18:06;;;;;;;7.05;2.05;;;;;;;;;;4964994;28;20475;-86
2022/03/31 17:20:36;;;;;;;4.97;2.08;;;;;;;;;;4956050;28;20446;-83
2022/03/31 17:23:04;;;;;;;8.48;2.58;;;;;;;;;;4964616;28;20043;-84
2022/03/31 17:25:34;;;;;;;10.10;2.45;;;;;;;;;;4962741;28;20852;-80
2022/03/31 17:28:03;;;;;;;7.20;2.08;;;;;;;;;;4957836;28;20910;-83
2022/03/31 17:30:30;;;;;;;4.80;1.98;;;;;;;;;;4960229;28;20078;-82
2022/03/31 17:32:57;;;;;;;5.63;2.15;;;;;;;;;;4952382;28;20078;-82
2022/03/31 17:35:24;;;;;;;6.20;2.55;;;;;;;;;;4958686;28;20043;-84
2022/03/31 17:37:51;;;;;;;8.02;2.75;;;;;;;;;;4939057;28;20074;-82
2022/03/31 17:40:19;;;;;;;8.07;1.88;;;;;;;;;;4960534;28;20102;-82
2022/03/31 17:42:46;;;;;;;4.03;2.30;;;;;;;;;;4958180;28;20149;-82
2022/03/31 17:45:16;;;;;;;5.57;1.77;;;;;;;;;;4965397;28;20616;-81
2022/03/31 17:47:46;;;;;;;4.93;2.45;;;;;;;;;;4958384;28;20145;-83
2022/03/31 17:50:14;;;;;;;6.90;3.03;;;;;;;;;;4958046;28;20238;-82
2022/03/31 17:52:42;;;;;;;8.82;2.20;;;;;;;;;;4961609;28;20078;-83
2022/03/31 17:55:12;;;;;;;7.50;2.78;;;;;;;;;;4942540;28;20066;-84
2022/03/31 17:57:44;;;;;;;11.50;3.35;;;;;;;;;;4962444;28;20057;-82
2022/03/31 18:00:13;;;;;;;7.13;2.85;;;;;;;;;;4952805;28;20776;-84
2022/03/31 18:02:46;;;;;;;11.15;3.17;;;;;;;;;;4960483;28;20055;-82
2022/03/31 18:05:14;;;;;;;10.13;3.80;;;;;;;;;;4966081;28;20059;-83
2022/03/31 18:07:42;;;;;;;9.23;3.20;;;;;;;;;;4965149;28;20082;-84
2022/03/31 18:10:12;;;;;;;7.38;2.95;;;;;;;;;;4964410;28;20062;-84
2022/03/31 18:12:44;;;;;;;11.73;3.28;;;;;;;;;;4956551;28;20046;-89
2022/03/31 18:15:13;;;;;;;8.32;3.22;;;;;;;;;;4969975;28;20104;-87
2022/03/31 18:17:43;;;;;;;7.65;3.63;;;;;;;;;;4965645;28;20142;-88
2022/03/31 18:20:12;;;;;;;12.40;3.75;;;;;;;;;;4968203;28;20198;-89
2022/03/31 18:22:40;;;;;;;6.50;3.42;;;;;;;;;;4967331;28;20055;-89
2022/03/31 18:25:09;;;;;;;9.65;3.25;;;;;;;;;;4966825;28;20055;-89
2022/03/31 18:27:37;;;;;;;12.57;3.35;;;;;;;;;;4967893;28;20051;-89
2022/03/31 18:35:38;;;;;;;6.53;3.38;;;;;;;;;;4968295;28;20046;-89
2022/03/31 18:38:09;;;;;;;12.38;3.35;;;;;;;;;;4968013;28;20526;-90
2022/03/31 18:40:36;;;;;;;9.02;3.15;;;;;;;;;;4967221;28;20054;-88
2022/03/31 18:43:03;;;;;;;8.43;3.45;;;;;;;;;;4965037;28;20046;-90
2022/03/31 18:45:30;;;;;;;7.05;3.00;;;;;;;;;;4971985;28;20050;-86
2022/03/31 18:47:57;;;;;;;8.38;3.10;;;;;;;;;;4967051;28;20109;-83
2022/03/31 18:50:24;;;;;;;5.03;2.35;;;;;;;;;;4967386;28;20046;-82
2022/03/31 18:52:51;;;;;;;9.38;2.85;;;;;;;;;;4960918;28;20050;-82
2022/03/31 18:55:17;;;;;;;4.93;1.63;;;;;;;;;;4956028;28;20089;-84
2022/03/31 18:57:44;;;;;;;4.70;2.00;;;;;;;;;;4959733;28;20059;-82
2022/03/31 19:00:12;;;;;;;4.90;2.08;;;;;;;;;;4951322;28;20050;-84
2022/03/31 19:02:39;;;;;;;6.20;2.38;;;;;;;;;;4964199;28;20078;-82
2022/03/31 19:05:06;;;;;;;5.43;2.20;;;;;;;;;;4956464;28;20138;-84
2022/03/31 19:07:37;;;;;;;5.80;2.33;;;;;;;;;;4959992;28;20517;-83
2022/03/31 19:10:04;;;;;;;5.43;2.25;;;;;;;;;;4962966;28;20066;-84
2022/03/31 19:12:31;;;;;;;5.75;2.10;;;;;;;;;;4962950;28;20620;-84
2022/03/31 19:14:57;;;;;;;7.05;2.65;;;;;;;;;;4962131;28;20137;-83
2022/03/31 19:17:26;;;;;;;5.63;2.30;;;;;;;;;;4960890;28;20074;-83
2022/03/31 19:19:53;;;;;;;6.22;2.15;;;;;;;;;;4959690;28;20082;-84
2022/03/31 19:22:21;;;;;;;5.05;2.47;;;;;;;;;;4959204;28;20042;-83
2022/03/31 19:24:48;;;;;;;7.00;2.20;;;;;;;;;;4956581;28;20052;-84
2022/03/31 19:27:15;;;;;;;11.90;5.18;;;;;;;;;;4956651;28;20046;-83
2022/03/31 19:29:41;;;;;;;7.10;3.20;;;;;;;;;;4957747;28;20110;-83
2022/03/31 19:32:08;;;;;;;5.43;2.50;;;;;;;;;;4955513;28;20101;-84
2022/03/31 19:34:35;;;;;;;6.10;2.53;;;;;;;;;;4961269;28;20125;-84
2022/03/31 19:37:03;;;;;;;6.35;2.85;;;;;;;;;;4963041;28;20121;-83
2022/03/31 19:39:50;;;;;;;7.63;2.80;;;;;;;;;;4955855;28;20563;-83
2022/03/31 19:42:17;;;;;;;7.32;2.20;;;;;;;;;;4956664;28;20102;-83
2022/03/31 19:44:44;;;;;;;6.50;2.15;;;;;;;;;;4958196;28;20074;-83
2022/03/31 19:47:11;;;;;;;10.50;2.45;;;;;;;;;;4959763;28;20086;-84
2022/03/31 19:49:41;;;;;;;7.22;2.22;;;;;;;;;;4955431;28;20051;-83
2022/03/31 19:52:09;;;;;;;8.55;2.33;;;;;;;;;;4955753;28;20054;-83
2022/03/31 19:54:36;;;;;;;9.63;2.83;;;;;;;;;;4954733;28;20055;-82
2022/03/31 19:57:03;;;;;;;10.77;2.92;;;;;;;;;;4959166;28;20051;-82
2022/03/31 19:59:29;;;;;;;7.97;1.83;;;;;;;;;;4960973;28;20507;-80
2022/03/31 20:01:56;;;;;;;7.20;2.28;;;;;;;;;;4963759;28;20070;-83
2022/03/31 20:04:23;;;;;;;6.57;2.33;;;;;;;;;;4951518;28;20060;-84
2022/03/31 20:06:50;;;;;;;8.00;2.15;;;;;;;;;;4965754;28;20602;-83
2022/03/31 20:09:17;;;;;;;6.32;1.83;;;;;;;;;;4965365;28;20054;-84
2022/03/31 20:11:44;;;;;;;9.65;2.30;;;;;;;;;;4966713;28;20079;-86
2022/03/31 20:14:10;;;;;;;8.73;2.38;;;;;;;;;;4966808;28;20078;-86
2022/03/31 20:16:39;;;;;;;6.45;2.00;;;;;;;;;;4965399;28;20078;-85
2022/03/31 20:19:07;;;;;;;6.88;2.75;;;;;;;;;;4966014;28;20047;-85
2022/03/31 20:21:34;;;;;;;7.20;2.58;;;;;;;;;;4966352;28;20070;-84
2022/03/31 20:24:01;;;;;;;7.50;2.40;;;;;;;;;;4965612;28;20070;-85
2022/03/31 20:26:28;;;;;;;8.60;2.20;;;;;;;;;;4948086;28;20579;-84
2022/03/31 20:28:55;;;;;;;6.95;2.28;;;;;;;;;;4965296;28;20086;-85
2022/03/31 20:31:23;;;;;;;4.20;2.00;;;;;;;;;;4965685;28;20055;-84
2022/03/31 20:33:51;;;;;;;6.50;2.50;;;;;;;;;;4960405;28;20042;-84
2022/03/31 20:36:18;;;;;;;7.38;2.65;;;;;;;;;;4960951;28;20538;-84
2022/03/31 20:38:45;;;;;;;6.05;2.40;;;;;;;;;;4945595;28;20122;-84
2022/03/31 20:41:12;;;;;;;5.82;2.03;;;;;;;;;;4965074;28;20074;-84
2022/03/31 20:43:39;;;;;;;6.30;2.17;;;;;;;;;;4965034;28;20579;-85
2022/03/31 20:46:05;;;;;;;7.50;2.03;;;;;;;;;;4966210;28;20047;-85
2022/03/31 20:48:32;;;;;;;7.53;2.53;;;;;;;;;;4966413;28;20058;-84
2022/03/31 20:51:01;;;;;;;7.32;2.33;;;;;;;;;;4965708;28;20562;-85
2022/03/31 20:53:28;;;;;;;;;;;;;;;;;;4966663;28;20748;-85
2022/03/31 20:55:55;;;;;;;6.78;2.50;;;;;;;;;;4966530;28;19922;-85
2022/03/31 20:58:22;;;;;;;7.88;2.13;;;;;;;;;;4966711;28;20082;-84
2022/03/31 21:00:48;;;;;;;5.50;2.45;;;;;;;;;;4966873;28;20124;-85
2022/03/31 21:03:15;;;;;;;6.07;2.47;;;;;;;;;;4966827;28;20065;-85
2022/03/31 21:05:42;;;;;;;8.05;2.30;;;;;;;;;;4967308;28;20055;-86
2022/03/31 21:08:08;;;;;;;7.47;2.03;;;;;;;;;;4969077;28;20078;-85